Flight Track Log - Related Links

Times and Time Zones

All times are in EST time to prevent confusion due to time zone crossing. See the SWA2182 flight status page for this flight to view local times or setup timezone preferences in your user account.

Time Position Orientation Groundspeed Altitude Reporting Facility
EST Latitude Longitude Course Direction KTS MPH feet Rate Location/Type
Sat 06:13:56 PM 27.9667 -82.5500 196° South 176 203 900  Level Tampa TRACON
Sat 06:14:56 PM 27.9167 -82.5667 207° Southwest 200 230 2,800 2,476 Climbing Tampa TRACON
Sat 06:16:02 PM 27.8833 -82.6167 233° Southwest 226 260 6,100 2,702 Climbing Tampa TRACON
Sat 06:18:07 PM 27.9911 -82.6811 332° Northwest 264 304 11,400 2,724 Climbing Jacksonville Center
Sat 06:19:07 PM 28.0914 -82.6667 North 307 353 14,500 3,000 Climbing Jacksonville Center
Sat 06:20:07 PM 28.1997 -82.6522 North 352 405 17,400 2,900 Climbing Jacksonville Center
Sat 06:21:07 PM 28.3083 -82.6381 North 382 440 20,300 2,600 Climbing Jacksonville Center
Sat 06:22:07 PM 28.4231 -82.6236 North 397 457 22,600 2,300 Climbing Jacksonville Center
Sat 06:23:07 PM 28.5397 -82.6089 North 411 473 24,900 2,250 Climbing Jacksonville Center
Sat 06:24:07 PM 28.6589 -82.5944 North 416 479 27,100 1,850 Climbing Jacksonville Center
Sat 06:25:07 PM 28.7653 -82.6036 356° North 425 489 28,600 1,500 Climbing Jacksonville Center
Sat 06:26:07 PM 28.8842 -82.6200 353° North 424 488 30,100 1,750 Climbing Jacksonville Center
Sat 06:27:07 PM 29.0075 -82.6361 353° North 430 495 32,100 1,700 Climbing Jacksonville Center
Sat 06:28:07 PM 29.1328 -82.6525 353° North 442 509 33,500 1,400 Climbing Jacksonville Center
Sat 06:29:07 PM 29.2558 -82.6711 352° North 447 514 34,900 1,600 Climbing Jacksonville Center
Sat 06:30:07 PM 29.3769 -82.6875 353° North 447 514 36,700 1,700 Climbing Jacksonville Center
Sat 06:31:07 PM 29.5003 -82.6969 356° North 442 509 38,300 1,150 Climbing Jacksonville Center
Sat 06:32:07 PM 29.6169 -82.6942 North 442 509 39,000 350 Climbing Jacksonville Center
Sat 06:33:07 PM 29.7381 -82.6917 North 432 497 39,000  Level Jacksonville Center
Sat 06:34:07 PM 29.8572 -82.6628 12° North 432 497 39,000  Level Jacksonville Center
Sat 06:35:07 PM 29.9781 -82.6192 17° North 442 509 39,000  Level Jacksonville Center
Sat 06:36:07 PM 30.0969 -82.5853 14° North 442 509 39,000  Level Jacksonville Center
Sat 06:37:07 PM 30.2200 -82.5464 15° North 442 509 39,000  Level Jacksonville Center
Sat 06:38:07 PM 30.3411 -82.5075 15° North 437 503 39,000  Level Jacksonville Center
Sat 06:39:07 PM 30.4642 -82.4683 15° North 442 509 39,000  Level Jacksonville Center
Sat 06:40:07 PM 30.5872 -82.4269 16° North 447 514 39,000  Level Jacksonville Center
Sat 06:41:07 PM 30.7058 -82.3611 26° Northeast 457 526 39,000  Level Jacksonville Center
Sat 06:42:07 PM 30.8142 -82.2686 36° Northeast 469 540 39,000  Level Jacksonville Center
Sat 06:43:07 PM 30.9222 -82.1733 37° Northeast 476 548 39,000  Level Jacksonville Center
Sat 06:44:07 PM 31.0303 -82.0781 37° Northeast 482 555 39,000  Level Jacksonville Center
Sat 06:45:07 PM 31.1464 -81.9822 35° Northeast 482 555 39,000  Level Jacksonville Center
Sat 06:46:07 PM 31.2564 -81.8889 36° Northeast 476 548 39,000  Level Jacksonville Center
Sat 06:47:07 PM 31.3683 -81.7975 35° Northeast 482 555 39,000  Level Jacksonville Center
Sat 06:48:07 PM 31.4761 -81.7064 36° Northeast 477 549 39,000  Level Jacksonville Center
Sat 06:49:07 PM 31.5839 -81.6147 36° Northeast 477 549 39,000  Level Jacksonville Center
Sat 06:50:07 PM 31.6811 -81.5328 36° Northeast 477 549 39,000  Level Jacksonville Center
Sat 06:51:07 PM 31.7908 -81.4358 37° Northeast 477 549 39,000  Level Jacksonville Center
Sat 06:52:07 PM 31.9025 -81.3483 34° Northeast 477 549 39,000  Level Jacksonville Center
Sat 06:53:07 PM 32.0119 -81.2583 35° Northeast 477 549 39,000  Level Jacksonville Center
Sat 06:54:07 PM 32.1192 -81.1658 36° Northeast 477 549 39,000  Level Jacksonville Center
Sat 06:55:07 PM 32.2267 -81.0728 36° Northeast 477 549 39,000  Level Jacksonville Center
Sat 06:56:07 PM 32.3461 -80.9744 35° Northeast 476 548 39,000  Level Jacksonville Center
Sat 06:57:07 PM 32.4450 -80.8886 36° Northeast 476 548 39,000  Level Jacksonville Center
Sat 06:58:07 PM 32.5542 -80.7950 36° Northeast 476 548 39,000  Level Jacksonville Center
Sat 06:59:07 PM 32.6633 -80.7039 35° Northeast 476 548 39,000  Level Jacksonville Center
Sat 07:00:07 PM 32.7742 -80.6072 36° Northeast 481 554 39,000  Level Jacksonville Center
Sat 07:01:07 PM 32.8833 -80.5156 35° Northeast 481 554 39,000  Level Jacksonville Center
Sat 07:02:07 PM 32.9900 -80.4208 37° Northeast 481 554 39,000  Level Jacksonville Center
Sat 07:03:07 PM 33.1028 -80.3211 37° Northeast 487 560 39,000  Level Jacksonville Center
Sat 07:04:07 PM 33.2281 -80.2183 34° Northeast 487 560 39,000  Level Jacksonville Center
Sat 07:05:07 PM 33.3322 -80.1206 38° Northeast 487 560 39,000  Level Jacksonville Center
Sat 07:06:07 PM 33.4428 -80.0250 36° Northeast 487 560 39,000  Level Jacksonville Center
Sat 07:07:07 PM 33.5533 -79.9292 36° Northeast 487 560 39,000  Level Jacksonville Center
Sat 07:08:07 PM 33.6594 -79.8333 37° Northeast 487 560 39,000  Level Jacksonville Center
Sat 07:09:07 PM 33.7697 -79.7322 37° Northeast 487 560 39,000  Level Jacksonville Center
Sat 07:10:07 PM 33.8800 -79.6356 36° Northeast 487 560 39,000  Level Jacksonville Center
Sat 07:11:07 PM 33.9878 -79.5364 37° Northeast 487 560 39,000  Level Jacksonville Center
Sat 07:12:07 PM 34.1000 -79.4394 36° Northeast 487 560 39,000  Level Jacksonville Center
Sat 07:13:07 PM 34.1917 -79.3553 37° Northeast 473 544 39,000  Level Jacksonville Center
Sat 07:15:27 PM 34.4431 -79.1275 37° Northeast 488 562 39,000  Level Washington Center
Sat 07:16:25 PM 34.5544 -79.0289 36° Northeast 481 554 39,000  Level Washington Center
Sat 07:17:25 PM 34.6614 -78.9300 37° Northeast 481 554 39,000  Level Washington Center
Sat 07:18:26 PM 34.7683 -78.8333 37° Northeast 481 554 39,000  Level Washington Center
Sat 07:19:26 PM 34.8756 -78.7339 37° Northeast 481 554 39,000  Level Washington Center
Sat 07:20:24 PM 34.9822 -78.6339 38° Northeast 481 554 39,000  Level Washington Center
Sat 07:21:24 PM 35.0933 -78.5317 37° Northeast 481 554 39,000  Level Washington Center
Sat 07:22:26 PM 35.2003 -78.4311 38° Northeast 481 554 39,000  Level Washington Center
Sat 07:23:24 PM 35.3089 -78.3281 38° Northeast 481 554 39,000  Level Washington Center
Sat 07:24:24 PM 35.4178 -78.2272 37° Northeast 486 559 39,000  Level Washington Center
Sat 07:25:25 PM 35.5411 -78.1142 37° Northeast 496 571 39,000  Level Washington Center
Sat 07:26:27 PM 35.6494 -78.0153 37° Northeast 496 571 39,000  Level Washington Center
Sat 07:27:24 PM 35.7581 -77.9111 38° Northeast 496 571 39,000  Level Washington Center
Sat 07:28:25 PM 35.8686 -77.8092 37° Northeast 496 571 39,000  Level Washington Center
Sat 07:29:26 PM 35.9808 -77.7044 37° Northeast 496 571 39,000  Level Washington Center
Sat 07:30:26 PM 36.0892 -77.6019 37° Northeast 496 571 39,000  Level Washington Center
Sat 07:31:25 PM 36.2014 -77.4994 36° Northeast 496 571 39,000  Level Washington Center
Sat 07:32:25 PM 36.2947 -77.4089 38° Northeast 490 564 39,000  Level Washington Center
Sat 07:33:25 PM 36.4131 -77.2928 38° Northeast 490 564 39,000  Level Washington Center
Sat 07:34:26 PM 36.5231 -77.1919 36° Northeast 495 570 39,000  Level Washington Center
Sat 07:35:25 PM 36.6350 -77.0881 37° Northeast 495 570 39,000  Level Washington Center
Sat 07:36:26 PM 36.7425 -76.9839 38° Northeast 495 570 39,000  Level Washington Center
Sat 07:37:24 PM 36.8522 -76.8844 36° Northeast 495 570 39,000  Level Washington Center
Sat 07:38:24 PM 36.9658 -76.7850 35° Northeast 488 562 39,000  Level Washington Center
Sat 07:39:24 PM 37.0753 -76.6825 37° Northeast 488 562 39,000  Level Washington Center
Sat 07:40:25 PM 37.1889 -76.5825 35° Northeast 488 562 39,000  Level Washington Center
Sat 07:41:26 PM 37.3003 -76.4794 36° Northeast 488 562 39,000  Level Washington Center
Sat 07:42:26 PM 37.4031 -76.3867 36° Northeast 488 562 39,000  Level Washington Center
Sat 07:43:24 PM 37.5122 -76.2856 36° Northeast 493 567 39,000  Level Washington Center
Sat 07:44:24 PM 37.6253 -76.1844 35° Northeast 493 567 39,000  Level Washington Center
Sat 07:45:26 PM 37.7489 -76.0750 35° Northeast 493 567 39,000  Level Washington Center
Sat 07:46:26 PM 37.8472 -75.9731 39° Northeast 498 573 39,000  Level Washington Center
Sat 07:47:26 PM 37.9600 -75.8708 36° Northeast 503 579 39,000  Level Washington Center
Sat 07:48:25 PM 38.0708 -75.7658 37° Northeast 503 579 39,000  Level Washington Center
Sat 07:49:25 PM 38.1814 -75.6631 36° Northeast 503 579 39,000  Level Washington Center
Sat 07:50:25 PM 38.2942 -75.5600 36° Northeast 503 579 39,000  Level Washington Center
Sat 07:51:24 PM 38.4253 -75.4778 26° Northeast 486 559 39,000  Level Washington Center
Sat 07:52:25 PM 38.5525 -75.4244 18° North 475 547 39,000  Level Washington Center
Sat 07:53:24 PM 38.6775 -75.3603 22° Northeast 475 547 39,000  Level Washington Center
Sat 07:54:24 PM 38.7961 -75.2667 32° Northeast 486 559 39,000  Level Washington Center
Sat 07:55:26 PM 38.9125 -75.1700 33° Northeast 491 565 39,000  Level Washington Center
Sat 07:56:24 PM 39.0308 -75.0758 32° Northeast 491 565 39,000  Level Washington Center
Sat 07:57:24 PM 39.1492 -74.9786 32° Northeast 496 571 39,000 -248 Level Washington Center
Sat 07:58:25 PM 39.2653 -74.8731 35° Northeast 496 571 38,500 -694 Descending Washington Center
Sat 07:59:25 PM 39.3814 -74.7567 38° Northeast 514 592 37,600 -893 Descending Washington Center
Sat 08:00:26 PM 39.4931 -74.6422 38° Northeast 519 597 36,700 -942 Descending Washington Center
Sat 08:01:26 PM 39.6086 -74.5250 38° Northeast 519 597 35,700 -966 Descending Washington Center
Sat 08:02:24 PM 39.7244 -74.4125 37° Northeast 519 597 34,800 -1,164 Descending Washington Center
Sat 08:03:40 PM 39.8594 -74.2728 38° Northeast 519 597 33,100 -1,456 Descending New York Center
Sat 08:04:40 PM 39.9753 -74.1567 38° Northeast 519 597 31,500 -2,150 Descending New York Center
Sat 08:05:40 PM 40.0914 -74.0350 39° Northeast 524 603 28,800 -2,331 Descending New York Center
Sat 08:06:41 PM 40.2028 -73.9206 38° Northeast 524 603 26,800 -1,500 Descending New York Center
Sat 08:07:40 PM 40.3228 -73.7956 38° Northeast 514 592 25,800 -1,021 Descending New York Center
Sat 08:09:55 PM 40.5658 -73.5447 38° Northeast 496 571 23,500 -1,286 Descending Boston Center
Sat 08:10:56 PM 40.6706 -73.4328 39° Northeast 490 564 21,600 -2,016 Descending Boston Center
Sat 08:11:57 PM 40.7689 -73.3294 39° Northeast 474 545 19,400 -1,289 Descending Boston Center
Sat 08:12:57 PM 40.8628 -73.2239 40° Northeast 456 525 19,000 -198 Descending Boston Center
Sat 08:13:58 PM 40.9522 -73.1194 41° Northeast 439 505 19,000 -541 Level Boston Center
Sat 08:14:59 PM 41.0425 -73.0131 42° Northeast 428 493 17,900 -1,778 Descending Boston Center
Sat 08:15:46 PM 41.1197 -72.9203 42° Northeast 414 476 15,800 -2,164 Descending Boston Center
Sat 08:16:00 PM 41.1294 -72.9106 37° Northeast 418 481 15,700 -1,946 Descending Boston Center
Sat 08:16:23 PM 41.1675 -72.8661 41° Northeast 408 470 14,600 -2,164 Descending Boston Center
Sat 08:17:01 PM 41.2131 -72.8128 41° Northeast 407 468 13,500 -2,300 Descending Boston Center
Sat 08:17:23 PM 41.2531 -72.7650 42° Northeast 392 451 12,300 -2,459 Descending Boston Center
Sat 08:18:02 PM 41.3064 -72.7200 32° Northeast 378 435 11,000 -1,377 Descending Boston Center
Sat 08:18:24 PM 41.3406 -72.7161 North 322 371 10,900 -1,000 Descending Boston Center
Sat 08:19:02 PM 41.3956 -72.7078 North 323 372 10,000 -885 Descending Boston Center
Sat 08:19:25 PM 41.4317 -72.7028 North 311 358 10,000 -295 Level Boston Center
Sat 08:20:03 PM 41.4775 -72.6950 North 295 339 9,700 -900 Descending Boston Center
Sat 08:20:25 PM 41.5078 -72.6897 North 280 322 9,100 -1,377 Descending Boston Center
Sat 08:21:04 PM 41.5531 -72.6808 North 277 319 8,300 -1,279 Descending Boston Center
Sat 08:21:26 PM 41.5839 -72.6767 North 273 314 7,800 -1,377 Descending Boston Center
Sat 08:22:05 PM 41.6322 -72.6706 North 265 305 6,900 -1,279 Descending Boston Center
Sat 08:22:27 PM 41.6567 -72.6681 North 260 299 6,500 -1,279 Descending Boston Center
Sat 08:23:06 PM 41.7033 -72.6650 North 259 298 5,600 -1,500 Descending Boston Center
Sat 08:23:27 PM 41.7292 -72.6622 North 256 295 5,000 -1,574 Descending Boston Center
Sat 08:24:07 PM 41.7756 -72.6589 North 260 299 4,000 -1,082 Descending Boston Center
Sat 08:24:28 PM 41.8033 -72.6572 North 270 311 3,900 -1,279 Descending Boston Center
Sat 08:25:08 PM 41.8458 -72.6506 North 256 295 2,700 -1,600 Descending Boston Center
Sat 08:25:28 PM 41.8711 -72.6322 28° Northeast 273 314 2,300 -600 Descending Boston Center
Sat 08:26:08 PM 41.9078 -72.5958 36° Northeast 237 273 2,100 -197 Descending Boston Center
Sat 08:26:29 PM 41.9200 -72.5806 43° Northeast 204 235 2,100  Level Boston Center
Sat 08:27:09 PM 41.9533 -72.5633 21° North 189 217 2,100  Level Boston Center
Sat 08:27:30 PM 41.9658 -72.5681 344° North 160 184 2,100 -98 Level Boston Center
Sat 08:28:10 PM 41.9883 -72.5883 326° Northwest 140 161 2,000 -300 Descending Boston Center
Sat 08:28:30 PM 41.9892 -72.6022 275° West 108 124 1,800 -787 Descending Boston Center
Sat 08:29:11 PM 41.9842 -72.6281 255° West 109 125 1,200 -885 Descending Boston Center
Sat 08:29:31 PM 41.9750 -72.6406 225° Southwest 110 127 900 -787 Descending Boston Center
Sat 08:30:12 PM 41.9586 -72.6622 225° Southwest 118 136 400 -471 Descending Boston Center
Sat 08:31:13 PM 41.9339 -72.6939 224° Southwest 122 140 100 -295 Descending Boston Center

Login

Don't have an account? Register now (free) for customized features, flight alerts, and more!